createdAt,value
2024-04-05T00:18:56.535Z,4.30
2024-04-05T00:21:24.298Z,4.10
2024-04-05T00:23:51.764Z,4.50
2024-04-05T00:26:19.493Z,4.70
2024-04-05T00:28:47.068Z,4.20
2024-04-05T00:31:15.096Z,4.20
2024-04-05T06:04:15.443Z,1.20
2024-04-05T06:06:43.954Z,1.60
2024-04-05T06:09:15.114Z,1.80
2024-04-05T06:11:42.881Z,1.70
2024-04-05T06:14:10.374Z,1.50
2024-04-05T06:16:38.090Z,1.50
2024-04-05T06:19:06.019Z,2.20
2024-04-05T06:21:33.728Z,1.70
2024-04-05T06:24:01.245Z,1.60
2024-04-05T06:26:28.879Z,1.80
2024-04-05T06:28:56.728Z,1.70
2024-04-05T06:33:51.925Z,1.90
2024-04-05T06:36:19.430Z,1.60
2024-04-05T06:38:48.281Z,1.50
2024-04-05T06:41:17.804Z,1.50
2024-04-05T06:43:45.637Z,1.50
2024-04-05T06:46:13.614Z,1.60
2024-04-05T06:48:41.380Z,1.70
2024-04-05T06:51:17.961Z,1.40
2024-04-05T06:53:45.806Z,1.60
2024-04-05T06:58:41.696Z,1.50
2024-04-05T07:01:09.778Z,1.60
2024-04-05T07:03:37.272Z,1.60
2024-04-05T07:06:05.623Z,1.50
2024-04-05T07:08:33.265Z,1.50
2024-04-05T07:13:30.616Z,1.70
2024-04-05T07:15:58.849Z,1.20
2024-04-05T07:18:27.316Z,1.40
2024-04-05T07:20:57.697Z,1.50
2024-04-05T07:23:25.291Z,1.00
2024-04-05T07:25:54.343Z,1.10
2024-04-05T07:28:23.370Z,1.20
2024-04-05T07:30:52.977Z,1.40
2024-04-05T07:33:22.792Z,1.50
2024-04-05T07:35:51.874Z,1.10
2024-04-05T07:38:19.584Z,1.50
2024-04-05T07:40:47.057Z,1.50
2024-04-05T07:43:15.199Z,1.30
2024-04-05T07:45:43.169Z,1.50
2024-04-05T07:48:11.214Z,1.50
2024-04-05T07:50:38.961Z,1.50
2024-04-05T07:53:06.580Z,1.40
2024-04-05T07:55:38.523Z,1.60
2024-04-05T07:58:07.266Z,1.10
2024-04-05T08:00:34.802Z,1.40
2024-04-05T08:03:03.352Z,1.20
2024-04-05T08:05:32.269Z,1.30
2024-04-05T08:08:01.283Z,1.50
2024-04-05T08:10:33.026Z,1.10
2024-04-05T08:13:00.992Z,1.50
2024-04-05T08:15:33.023Z,1.10
2024-04-05T08:18:00.672Z,1.40
2024-04-05T08:20:28.133Z,1.20
2024-04-05T08:22:55.672Z,1.30
2024-04-05T08:25:24.831Z,4.00
2024-04-05T08:30:20.044Z,2.00
2024-04-05T08:32:47.577Z,1.20
2024-04-05T08:35:15.090Z,1.10
2024-04-05T08:37:44.292Z,2.40
2024-04-05T08:40:12.261Z,2.50
2024-04-05T08:45:11.967Z,1.30
2024-04-05T08:47:39.846Z,2.00
2024-04-05T08:50:09.574Z,2.70
2024-04-05T08:52:37.925Z,1.30
2024-04-05T08:55:06.214Z,2.50
2024-04-05T08:57:37.433Z,2.60
2024-04-05T09:00:07.097Z,1.80
2024-04-05T09:02:35.737Z,1.70
2024-04-05T09:05:08.124Z,1.30
2024-04-05T09:07:36.439Z,1.20
2024-04-05T09:10:18.028Z,1.30
2024-04-05T09:12:53.324Z,1.10
2024-04-05T09:15:21.399Z,1.10
2024-04-05T09:17:50.850Z,1.90
2024-04-05T09:20:30.520Z,1.20
2024-04-05T09:23:08.160Z,1.20
2024-04-05T09:25:39.718Z,1.60
2024-04-05T09:28:21.556Z,1.00
2024-04-05T09:30:50.929Z,1.00
2024-04-05T09:33:22.023Z,0.90
2024-04-05T09:35:51.060Z,1.50
2024-04-05T09:38:18.959Z,1.10
2024-04-05T09:43:13.854Z,1.60
2024-04-05T09:45:42.033Z,1.10
2024-04-05T09:48:11.440Z,1.40
2024-04-05T09:50:38.873Z,1.00
2024-04-05T09:53:06.599Z,1.40
2024-04-05T09:55:38.259Z,1.30
2024-04-05T09:58:09.033Z,1.00
2024-04-05T10:00:38.062Z,1.00
2024-04-05T10:03:06.234Z,1.30
2024-04-05T10:05:34.024Z,1.00
2024-04-05T10:08:11.770Z,0.90
2024-04-05T10:13:17.625Z,1.50
2024-04-05T10:15:55.410Z,1.50
2024-04-05T10:18:39.193Z,1.40
2024-04-05T10:21:12.811Z,1.10
2024-04-05T10:23:41.193Z,1.50
2024-04-05T10:26:14.851Z,1.20
2024-04-05T10:28:43.471Z,1.70
2024-04-05T10:31:12.264Z,1.10
2024-04-05T10:33:40.260Z,1.30
2024-04-05T10:36:08.630Z,1.10
2024-04-05T10:38:46.500Z,1.10
2024-04-05T10:41:20.012Z,0.90
2024-04-05T10:43:47.940Z,1.10
2024-04-05T10:48:44.791Z,1.30
2024-04-05T10:51:12.782Z,1.40
2024-04-05T10:53:40.618Z,1.30
2024-04-05T10:58:38.392Z,0.90
2024-04-05T11:01:05.895Z,1.30
2024-04-05T11:03:33.814Z,0.80
2024-04-05T11:08:33.431Z,1.20
2024-04-05T11:11:01.234Z,1.30
2024-04-05T11:16:05.628Z,1.20
2024-04-05T11:18:39.497Z,1.30
2024-04-05T11:21:07.105Z,1.10
2024-04-05T11:23:34.635Z,1.30
2024-04-05T11:26:02.424Z,1.30
2024-04-05T11:30:57.582Z,1.20
2024-04-05T11:33:25.111Z,1.60
2024-04-05T11:35:54.758Z,1.50
2024-04-05T11:38:22.308Z,1.70
2024-04-05T11:40:49.820Z,1.90
2024-04-05T11:43:17.904Z,1.60
2024-04-05T11:45:45.667Z,1.70
2024-04-05T11:48:13.123Z,1.90
2024-04-05T11:50:40.634Z,1.60
2024-04-05T11:55:36.147Z,1.60
2024-04-05T12:00:31.175Z,1.80
2024-04-05T12:02:58.562Z,1.50
2024-04-05T12:05:26.595Z,1.40
2024-04-05T12:07:54.538Z,1.30
2024-04-05T12:12:49.586Z,1.70
2024-04-05T12:15:18.848Z,1.30
2024-04-05T12:17:48.478Z,1.80
2024-04-05T12:20:16.518Z,1.50
2024-04-05T12:22:44.294Z,1.30
2024-04-05T12:25:11.935Z,1.10
2024-04-05T12:27:39.467Z,1.70
2024-04-05T12:30:11.887Z,1.70
2024-04-05T12:35:06.671Z,1.70
2024-04-05T12:37:41.125Z,1.40
2024-04-05T12:40:19.028Z,1.80
2024-04-05T12:42:46.804Z,1.40
2024-04-05T12:45:14.673Z,1.40
2024-04-05T12:50:11.250Z,1.70
2024-04-05T12:52:38.692Z,1.70
2024-04-05T12:55:06.345Z,2.20
2024-04-05T13:02:30.507Z,1.50
2024-04-05T13:04:58.007Z,8.90
2024-04-05T13:07:25.529Z,3.30
2024-04-05T13:09:53.466Z,1.80
2024-04-05T13:12:21.001Z,1.50
2024-04-05T13:14:48.921Z,1.60
2024-04-05T13:17:16.460Z,1.80
2024-04-05T13:19:49.243Z,1.80
2024-04-05T13:22:17.931Z,1.40
2024-04-05T13:24:46.108Z,1.50
2024-04-05T13:27:13.597Z,1.70
2024-04-05T13:29:41.607Z,1.70
2024-04-05T13:34:38.683Z,1.60
2024-04-05T13:37:06.502Z,1.40
2024-04-05T13:42:01.756Z,1.80
2024-04-05T13:44:29.552Z,1.30
2024-04-05T13:46:57.575Z,1.40
2024-04-05T13:51:52.495Z,1.70
2024-04-05T13:54:20.098Z,1.80
2024-04-05T13:56:48.130Z,1.50
2024-04-05T13:59:15.982Z,1.80
2024-04-05T14:01:44.173Z,1.50
2024-04-05T14:04:11.863Z,1.90
2024-04-05T14:06:39.578Z,1.50
2024-04-05T14:09:07.371Z,1.50
2024-04-05T14:11:35.023Z,1.80
2024-04-05T14:14:02.614Z,2.40
2024-04-05T14:16:31.671Z,1.90
2024-04-05T14:18:59.459Z,1.90
2024-04-05T14:21:27.020Z,1.70
2024-04-05T14:23:54.801Z,1.70
2024-04-05T14:26:22.641Z,1.80
2024-04-05T14:33:58.237Z,2.70
2024-04-05T14:36:27.779Z,2.30
2024-04-05T14:38:55.261Z,4.60
2024-04-05T14:41:22.783Z,4.50
2024-04-05T14:43:50.461Z,5.50
2024-04-05T14:46:17.984Z,6.80
2024-04-05T14:48:45.878Z,6.10
2024-04-05T14:53:41.827Z,2.90
2024-04-05T14:56:10.126Z,2.90
2024-04-05T14:58:37.938Z,1.90
2024-04-05T15:01:07.010Z,1.90
2024-04-05T15:03:35.035Z,1.40
2024-04-05T15:06:03.673Z,1.70
2024-04-05T15:08:33.601Z,1.90
2024-04-05T15:11:01.377Z,1.50
2024-04-05T15:15:56.936Z,1.40
2024-04-05T15:18:24.731Z,1.50
2024-04-05T15:23:22.079Z,1.40
2024-04-05T15:25:50.950Z,1.70
2024-04-05T15:28:19.297Z,1.70
2024-04-05T15:30:57.490Z,1.90
2024-04-05T15:33:25.448Z,2.00
2024-04-05T15:35:57.456Z,1.60
2024-04-05T15:38:26.608Z,2.00
2024-04-05T15:41:08.271Z,2.00
2024-04-05T15:43:37.371Z,2.10
2024-04-05T15:46:05.955Z,2.30
2024-04-05T15:48:33.406Z,1.80
2024-04-05T15:51:02.951Z,2.50
2024-04-05T15:53:32.481Z,1.80
2024-04-05T15:56:01.940Z,2.40
2024-04-05T15:58:31.707Z,2.00
2024-04-05T16:01:04.420Z,2.60
2024-04-05T16:03:35.143Z,2.70
2024-04-05T16:06:06.131Z,2.90
2024-04-05T16:08:34.233Z,3.00
2024-04-05T16:13:33.183Z,2.70
2024-04-05T16:16:01.563Z,2.70
2024-04-05T16:18:29.323Z,3.30
2024-04-05T16:23:37.128Z,3.20
2024-04-05T16:26:05.176Z,2.60
2024-04-05T16:28:37.255Z,2.50
2024-04-05T16:31:06.772Z,2.90
2024-04-05T16:33:34.405Z,2.40
2024-04-05T16:36:04.532Z,2.40
2024-04-05T16:38:39.904Z,2.60
2024-04-05T16:41:08.195Z,2.80
2024-04-05T16:43:40.556Z,3.00
2024-04-05T16:46:09.663Z,3.00
2024-04-05T16:48:38.269Z,3.70
2024-04-05T16:51:06.927Z,3.40
2024-04-05T16:53:39.048Z,3.40
2024-04-05T16:56:07.523Z,4.00
2024-04-05T16:58:38.061Z,4.50
2024-04-05T17:01:08.413Z,4.60
2024-04-05T17:03:35.951Z,5.00
2024-04-05T17:06:24.044Z,4.60
2024-04-05T17:08:52.116Z,3.90
2024-04-05T17:11:19.730Z,3.60
2024-04-05T17:13:52.649Z,4.00
2024-04-05T17:16:20.763Z,3.90
2024-04-05T17:21:15.896Z,4.80
2024-04-05T17:26:15.732Z,5.00
2024-04-05T17:28:43.672Z,5.10
2024-04-05T17:31:12.099Z,4.90
2024-04-05T17:33:42.189Z,5.50
2024-04-05T17:36:13.009Z,6.30
2024-04-05T17:38:41.304Z,7.70
2024-04-05T17:41:09.281Z,7.40
2024-04-05T17:43:37.472Z,7.10
2024-04-05T17:48:33.081Z,8.30
2024-04-05T17:51:00.640Z,8.30
2024-04-05T17:53:28.382Z,8.90
2024-04-05T17:56:00.702Z,7.80
2024-04-05T17:58:29.598Z,7.10
2024-04-05T18:00:58.215Z,6.70
2024-04-05T18:03:25.701Z,6.80
2024-04-05T18:05:53.436Z,6.30
2024-04-05T18:08:21.782Z,6.50
2024-04-05T18:10:49.225Z,7.00
2024-04-05T18:13:16.675Z,7.80
2024-04-05T18:15:45.836Z,6.20
2024-04-05T18:18:15.238Z,6.90
2024-04-05T18:20:42.835Z,5.80
2024-04-05T18:23:10.409Z,6.60
2024-04-05T18:25:39.662Z,6.40
2024-04-05T18:28:08.742Z,6.00
2024-04-05T18:30:41.140Z,5.20
2024-04-05T18:33:08.912Z,5.80
2024-04-05T18:38:05.656Z,6.10
2024-04-05T18:40:33.943Z,6.30
2024-04-05T18:43:01.482Z,6.10
2024-04-05T18:45:29.210Z,7.30
2024-04-05T18:47:57.865Z,6.70
2024-04-05T18:50:25.400Z,6.80
2024-04-05T18:53:00.538Z,6.70
2024-04-05T18:55:37.667Z,7.40
2024-04-05T18:58:06.195Z,7.30
2024-04-05T19:03:02.642Z,7.60
2024-04-05T19:05:30.845Z,7.40
2024-04-05T19:07:58.987Z,8.00
2024-04-05T19:10:28.093Z,7.80
2024-04-05T19:15:22.801Z,7.20
2024-04-05T19:17:50.800Z,7.60
2024-04-05T19:20:22.743Z,8.40
2024-04-05T19:22:50.251Z,7.90
2024-04-05T19:25:18.147Z,7.00
2024-04-05T19:27:45.736Z,7.30
2024-04-05T19:30:13.536Z,9.00
2024-04-05T19:35:13.168Z,6.70
2024-04-05T19:37:45.510Z,6.60
2024-04-05T19:40:17.446Z,6.30
2024-04-05T19:42:45.883Z,6.20
2024-04-05T19:45:17.180Z,7.30
2024-04-05T19:47:44.656Z,9.20
2024-04-05T19:50:12.153Z,8.80
2024-04-05T19:52:39.826Z,11.90
2024-04-05T19:55:07.651Z,15.10
2024-04-05T19:57:35.346Z,10.80
2024-04-05T20:00:03.094Z,6.60
2024-04-05T20:02:40.379Z,8.00
2024-04-05T20:05:08.144Z,7.40
2024-04-05T20:07:35.730Z,6.90
2024-04-05T20:10:03.655Z,7.00
2024-04-05T20:12:31.346Z,6.40
2024-04-05T20:14:58.876Z,6.40
2024-04-05T20:17:26.619Z,6.80
2024-04-05T20:22:23.202Z,6.20
2024-04-05T20:24:51.226Z,5.30
2024-04-05T20:30:05.116Z,5.10
2024-04-05T20:32:33.589Z,6.00
2024-04-05T20:35:01.572Z,5.80
2024-04-05T20:42:24.208Z,4.60
2024-04-05T20:44:51.918Z,4.80
2024-04-05T20:47:19.615Z,4.80
2024-04-05T20:49:47.015Z,4.30
2024-04-05T20:52:14.802Z,4.20
2024-04-05T20:54:42.906Z,4.20
2024-04-05T20:57:11.034Z,3.80
2024-04-05T20:59:38.629Z,4.70
2024-04-05T21:02:06.117Z,4.20
2024-04-05T21:04:33.550Z,4.20
2024-04-05T21:07:04.471Z,4.10
2024-04-05T21:09:32.415Z,4.10
2024-04-05T21:14:27.303Z,4.20
2024-04-05T21:16:55.395Z,3.90
2024-04-05T21:21:50.292Z,5.00
2024-04-05T21:24:17.954Z,4.70
2024-04-05T21:26:45.696Z,4.80
2024-04-05T21:31:40.617Z,5.30
2024-04-05T21:34:08.385Z,5.40
2024-04-05T21:36:35.791Z,4.90
2024-04-05T21:39:03.594Z,5.80
2024-04-05T21:41:30.963Z,6.20
2024-04-05T21:43:58.447Z,6.30
2024-04-05T21:46:44.806Z,5.70
2024-04-05T21:51:42.802Z,6.00
2024-04-05T21:54:10.197Z,5.70
2024-04-05T21:56:37.611Z,5.20
2024-04-05T21:59:05.681Z,5.10
2024-04-05T22:04:00.521Z,5.30
2024-04-05T22:06:27.841Z,5.40
2024-04-05T22:08:55.427Z,4.50
2024-04-05T22:11:23.151Z,5.40
2024-04-05T22:16:21.336Z,5.20
2024-04-05T22:18:49.354Z,4.90
2024-04-05T22:21:19.406Z,4.70
2024-04-05T22:23:47.355Z,4.80
2024-04-05T22:26:15.074Z,4.90
2024-04-05T22:28:42.655Z,4.40
2024-04-05T22:31:10.751Z,4.90
2024-04-05T22:33:38.320Z,4.80
2024-04-05T22:36:06.626Z,4.50
2024-04-05T22:38:34.563Z,4.50
2024-04-05T22:41:01.936Z,4.90
2024-04-05T22:43:29.604Z,4.00
2024-04-05T22:45:57.004Z,4.30
2024-04-05T22:48:25.431Z,4.20
2024-04-05T22:50:53.117Z,4.40
2024-04-05T22:53:20.682Z,3.80
2024-04-05T22:55:48.163Z,3.80
2024-04-05T22:58:15.848Z,3.90
2024-04-05T23:00:43.798Z,3.90
